Perwez, Belgium
Current Conditions -  °F | °C
As of 9:25 PM on Saturday 20 Dec 2014 (Local Time) from EBBE Reporting Station
Scattered Clouds Scattered Clouds  
Wind Chill: 37°   Ceiling: Unl
Heat Index: 43°   Visibility: 6mi
Dew Point: 37°   Wind: 12mph
Humidity: 81%   Direction: 270°W
Pressure: 30.36"   Gusts: NA
Location:  50.62°N, 4.81°E
Report Text: EBBE 202025Z AUTO 27010KT 9999 FEW031/// SCT055/// 06/03 Q1028 BLU
Loading
Personal Weather Stations






























Interactive Weather Map New forecast layout! Learn more

10-Day Weather Forecast

Advertisements
Track Severe Weather on mobile